sensor_id;sensor_type;location;lat;lon;timestamp;P1;durP1;ratioP1;P2;durP2;ratioP2
48847;SDS011;36611;51.638;5.784;2023-02-27T00:00:03;7.68;;;2.63;;
48847;SDS011;36611;51.638;5.784;2023-02-27T00:02:40;9.15;;;2.90;;
48847;SDS011;36611;51.638;5.784;2023-02-27T00:05:10;5.93;;;2.92;;
48847;SDS011;36611;51.638;5.784;2023-02-27T00:07:38;6.55;;;2.92;;
48847;SDS011;36611;51.638;5.784;2023-02-27T00:10:05;6.25;;;2.95;;
48847;SDS011;36611;51.638;5.784;2023-02-27T00:12:34;7.05;;;2.90;;
48847;SDS011;36611;51.638;5.784;2023-02-27T00:15:05;4.05;;;2.90;;
48847;SDS011;36611;51.638;5.784;2023-02-27T00:17:36;5.90;;;2.65;;
48847;SDS011;36611;51.638;5.784;2023-02-27T00:20:04;8.38;;;3.13;;
48847;SDS011;36611;51.638;5.784;2023-02-27T00:22:32;7.63;;;3.05;;
48847;SDS011;36611;51.638;5.784;2023-02-27T00:24:59;8.15;;;2.90;;
48847;SDS011;36611;51.638;5.784;2023-02-27T00:27:26;4.55;;;2.92;;
48847;SDS011;36611;51.638;5.784;2023-02-27T00:29:52;5.80;;;2.70;;
48847;SDS011;36611;51.638;5.784;2023-02-27T00:32:19;4.05;;;2.60;;
48847;SDS011;36611;51.638;5.784;2023-02-27T00:34:46;4.00;;;2.55;;
48847;SDS011;36611;51.638;5.784;2023-02-27T00:37:12;5.47;;;3.15;;
48847;SDS011;36611;51.638;5.784;2023-02-27T00:39:39;5.75;;;2.58;;
48847;SDS011;36611;51.638;5.784;2023-02-27T00:42:06;6.20;;;2.88;;
48847;SDS011;36611;51.638;5.784;2023-02-27T00:44:33;7.93;;;3.22;;
48847;SDS011;36611;51.638;5.784;2023-02-27T00:46:59;9.00;;;2.78;;
48847;SDS011;36611;51.638;5.784;2023-02-27T00:49:26;6.07;;;2.58;;
48847;SDS011;36611;51.638;5.784;2023-02-27T00:51:52;6.05;;;2.50;;
48847;SDS011;36611;51.638;5.784;2023-02-27T00:54:19;7.53;;;3.00;;
48847;SDS011;36611;51.638;5.784;2023-02-27T00:56:46;5.57;;;2.63;;
48847;SDS011;36611;51.638;5.784;2023-02-27T00:59:13;5.88;;;2.38;;
48847;SDS011;36611;51.638;5.784;2023-02-27T01:01:39;6.35;;;2.88;;
48847;SDS011;36611;51.638;5.784;2023-02-27T01:04:06;5.57;;;2.40;;
48847;SDS011;36611;51.638;5.784;2023-02-27T01:06:33;4.53;;;2.28;;
48847;SDS011;36611;51.638;5.784;2023-02-27T01:08:59;4.90;;;2.35;;
48847;SDS011;36611;51.638;5.784;2023-02-27T01:11:26;5.50;;;2.83;;
48847;SDS011;36611;51.638;5.784;2023-02-27T01:13:53;7.40;;;2.58;;
48847;SDS011;36611;51.638;5.784;2023-02-27T01:16:20;5.30;;;2.83;;
48847;SDS011;36611;51.638;5.784;2023-02-27T01:18:47;6.68;;;2.88;;
48847;SDS011;36611;51.638;5.784;2023-02-27T01:21:14;6.05;;;2.70;;
48847;SDS011;36611;51.638;5.784;2023-02-27T01:23:43;7.38;;;3.00;;
48847;SDS011;36611;51.638;5.784;2023-02-27T01:26:10;5.10;;;2.95;;
48847;SDS011;36611;51.638;5.784;2023-02-27T01:28:37;7.85;;;3.33;;
48847;SDS011;36611;51.638;5.784;2023-02-27T01:31:04;4.85;;;2.60;;
48847;SDS011;36611;51.638;5.784;2023-02-27T01:33:30;5.60;;;2.38;;
48847;SDS011;36611;51.638;5.784;2023-02-27T01:35:59;6.38;;;2.30;;
48847;SDS011;36611;51.638;5.784;2023-02-27T01:38:25;6.20;;;2.60;;
48847;SDS011;36611;51.638;5.784;2023-02-27T01:40:52;4.70;;;2.17;;
48847;SDS011;36611;51.638;5.784;2023-02-27T01:43:20;3.33;;;2.35;;
48847;SDS011;36611;51.638;5.784;2023-02-27T01:45:47;9.45;;;3.13;;
48847;SDS011;36611;51.638;5.784;2023-02-27T01:51:00;10.55;;;2.97;;
48847;SDS011;36611;51.638;5.784;2023-02-27T01:53:33;7.57;;;2.60;;
48847;SDS011;36611;51.638;5.784;2023-02-27T01:56:13;6.30;;;2.63;;
48847;SDS011;36611;51.638;5.784;2023-02-27T01:58:43;4.78;;;2.53;;
48847;SDS011;36611;51.638;5.784;2023-02-27T02:01:13;4.93;;;2.72;;
48847;SDS011;36611;51.638;5.784;2023-02-27T02:03:58;5.60;;;2.72;;
48847;SDS011;36611;51.638;5.784;2023-02-27T02:06:29;8.18;;;2.88;;
48847;SDS011;36611;51.638;5.784;2023-02-27T02:08:59;7.35;;;2.63;;
48847;SDS011;36611;51.638;5.784;2023-02-27T02:11:28;5.82;;;2.90;;
48847;SDS011;36611;51.638;5.784;2023-02-27T02:13:56;6.18;;;2.40;;
48847;SDS011;36611;51.638;5.784;2023-02-27T02:16:46;4.07;;;2.47;;
48847;SDS011;36611;51.638;5.784;2023-02-27T02:30:58;6.22;;;2.40;;
48847;SDS011;36611;51.638;5.784;2023-02-27T02:37:06;5.22;;;2.45;;
48847;SDS011;36611;51.638;5.784;2023-02-27T02:42:48;5.03;;;2.53;;
48847;SDS011;36611;51.638;5.784;2023-02-27T02:45:47;8.40;;;3.35;;
48847;SDS011;36611;51.638;5.784;2023-02-27T02:48:25;6.75;;;2.40;;
48847;SDS011;36611;51.638;5.784;2023-02-27T02:53:31;3.92;;;2.40;;
48847;SDS011;36611;51.638;5.784;2023-02-27T02:56:13;3.35;;;2.65;;
48847;SDS011;36611;51.638;5.784;2023-02-27T02:58:49;7.03;;;2.72;;
48847;SDS011;36611;51.638;5.784;2023-02-27T03:01:21;3.75;;;2.50;;
48847;SDS011;36611;51.638;5.784;2023-02-27T03:04:01;4.13;;;2.28;;
48847;SDS011;36611;51.638;5.784;2023-02-27T03:06:36;4.97;;;2.63;;
48847;SDS011;36611;51.638;5.784;2023-02-27T03:09:13;3.22;;;2.30;;
48847;SDS011;36611;51.638;5.784;2023-02-27T03:11:46;5.78;;;2.63;;
48847;SDS011;36611;51.638;5.784;2023-02-27T03:16:46;5.20;;;3.30;;
48847;SDS011;36611;51.638;5.784;2023-02-27T03:24:31;3.80;;;2.40;;
48847;SDS011;36611;51.638;5.784;2023-02-27T03:27:03;4.70;;;2.70;;
48847;SDS011;36611;51.638;5.784;2023-02-27T03:29:41;6.03;;;3.00;;
48847;SDS011;36611;51.638;5.784;2023-02-27T03:32:24;7.05;;;2.88;;
48847;SDS011;36611;51.638;5.784;2023-02-27T03:34:58;5.43;;;3.10;;
48847;SDS011;36611;51.638;5.784;2023-02-27T03:37:29;7.20;;;3.35;;
48847;SDS011;36611;51.638;5.784;2023-02-27T03:40:34;9.50;;;3.17;;
48847;SDS011;36611;51.638;5.784;2023-02-27T03:46:08;6.43;;;3.00;;
48847;SDS011;36611;51.638;5.784;2023-02-27T03:48:38;5.78;;;3.05;;
48847;SDS011;36611;51.638;5.784;2023-02-27T03:51:13;9.35;;;2.63;;
48847;SDS011;36611;51.638;5.784;2023-02-27T03:56:31;6.85;;;3.33;;
48847;SDS011;36611;51.638;5.784;2023-02-27T03:59:05;6.50;;;3.13;;
48847;SDS011;36611;51.638;5.784;2023-02-27T04:01:34;4.85;;;2.65;;
48847;SDS011;36611;51.638;5.784;2023-02-27T04:04:06;5.28;;;2.85;;
48847;SDS011;36611;51.638;5.784;2023-02-27T04:27:44;20.48;;;4.40;;
48847;SDS011;36611;51.638;5.784;2023-02-27T04:38:38;5.50;;;3.30;;
48847;SDS011;36611;51.638;5.784;2023-02-27T04:41:15;6.18;;;3.30;;
48847;SDS011;36611;51.638;5.784;2023-02-27T04:43:47;5.30;;;3.47;;
48847;SDS011;36611;51.638;5.784;2023-02-27T04:46:16;8.15;;;3.80;;
48847;SDS011;36611;51.638;5.784;2023-02-27T04:48:51;7.28;;;3.83;;
48847;SDS011;36611;51.638;5.784;2023-02-27T04:51:23;6.63;;;3.05;;
48847;SDS011;36611;51.638;5.784;2023-02-27T04:53:58;4.97;;;3.42;;
48847;SDS011;36611;51.638;5.784;2023-02-27T04:56:30;8.75;;;3.53;;
48847;SDS011;36611;51.638;5.784;2023-02-27T04:59:02;8.88;;;3.80;;
48847;SDS011;36611;51.638;5.784;2023-02-27T05:01:39;5.03;;;3.03;;
48847;SDS011;36611;51.638;5.784;2023-02-27T05:04:09;5.80;;;3.10;;
48847;SDS011;36611;51.638;5.784;2023-02-27T05:06:38;7.88;;;2.97;;
48847;SDS011;36611;51.638;5.784;2023-02-27T05:09:11;9.60;;;3.22;;
48847;SDS011;36611;51.638;5.784;2023-02-27T05:14:26;7.55;;;3.33;;
48847;SDS011;36611;51.638;5.784;2023-02-27T05:17:06;4.95;;;3.33;;
48847;SDS011;36611;51.638;5.784;2023-02-27T05:19:36;9.65;;;3.38;;
48847;SDS011;36611;51.638;5.784;2023-02-27T05:25:08;7.80;;;4.00;;
48847;SDS011;36611;51.638;5.784;2023-02-27T05:28:06;10.25;;;3.80;;
48847;SDS011;36611;51.638;5.784;2023-02-27T05:30:40;5.38;;;3.38;;
48847;SDS011;36611;51.638;5.784;2023-02-27T05:33:18;6.13;;;3.17;;
48847;SDS011;36611;51.638;5.784;2023-02-27T05:36:06;7.43;;;3.47;;
48847;SDS011;36611;51.638;5.784;2023-02-27T05:38:40;4.32;;;2.92;;
48847;SDS011;36611;51.638;5.784;2023-02-27T05:41:16;6.90;;;4.03;;
48847;SDS011;36611;51.638;5.784;2023-02-27T05:43:50;6.35;;;3.33;;
48847;SDS011;36611;51.638;5.784;2023-02-27T05:46:24;5.50;;;3.33;;
48847;SDS011;36611;51.638;5.784;2023-02-27T05:48:56;6.07;;;3.33;;
48847;SDS011;36611;51.638;5.784;2023-02-27T05:51:28;8.25;;;4.15;;
48847;SDS011;36611;51.638;5.784;2023-02-27T05:54:01;7.45;;;3.53;;
48847;SDS011;36611;51.638;5.784;2023-02-27T05:56:35;6.43;;;3.03;;
48847;SDS011;36611;51.638;5.784;2023-02-27T05:59:13;7.43;;;3.75;;
48847;SDS011;36611;51.638;5.784;2023-02-27T06:01:47;5.53;;;3.15;;
48847;SDS011;36611;51.638;5.784;2023-02-27T06:04:13;7.28;;;3.58;;
48847;SDS011;36611;51.638;5.784;2023-02-27T06:06:40;6.30;;;3.50;;
48847;SDS011;36611;51.638;5.784;2023-02-27T06:09:07;5.57;;;3.50;;
48847;SDS011;36611;51.638;5.784;2023-02-27T06:11:34;7.90;;;3.38;;
48847;SDS011;36611;51.638;5.784;2023-02-27T06:14:01;7.60;;;3.20;;
48847;SDS011;36611;51.638;5.784;2023-02-27T06:16:28;4.78;;;3.60;;
48847;SDS011;36611;51.638;5.784;2023-02-27T06:18:55;6.25;;;3.33;;
48847;SDS011;36611;51.638;5.784;2023-02-27T06:21:22;8.30;;;3.42;;
48847;SDS011;36611;51.638;5.784;2023-02-27T06:23:48;4.30;;;2.97;;
48847;SDS011;36611;51.638;5.784;2023-02-27T06:26:15;7.80;;;3.33;;
48847;SDS011;36611;51.638;5.784;2023-02-27T06:28:42;5.55;;;2.92;;
48847;SDS011;36611;51.638;5.784;2023-02-27T06:31:08;8.23;;;3.60;;
48847;SDS011;36611;51.638;5.784;2023-02-27T06:33:35;4.57;;;3.20;;
48847;SDS011;36611;51.638;5.784;2023-02-27T06:36:02;6.28;;;3.63;;
48847;SDS011;36611;51.638;5.784;2023-02-27T06:38:29;5.78;;;3.13;;
48847;SDS011;36611;51.638;5.784;2023-02-27T06:40:55;5.90;;;3.10;;
48847;SDS011;36611;51.638;5.784;2023-02-27T06:43:22;7.10;;;3.13;;
48847;SDS011;36611;51.638;5.784;2023-02-27T06:45:51;5.95;;;3.58;;
48847;SDS011;36611;51.638;5.784;2023-02-27T06:48:19;4.65;;;3.25;;
48847;SDS011;36611;51.638;5.784;2023-02-27T06:50:49;6.20;;;3.05;;
48847;SDS011;36611;51.638;5.784;2023-02-27T06:55:49;7.88;;;3.30;;
48847;SDS011;36611;51.638;5.784;2023-02-27T06:58:15;6.68;;;3.50;;
48847;SDS011;36611;51.638;5.784;2023-02-27T07:00:42;8.32;;;4.05;;
48847;SDS011;36611;51.638;5.784;2023-02-27T07:03:09;4.97;;;4.10;;
48847;SDS011;36611;51.638;5.784;2023-02-27T07:05:36;7.35;;;4.00;;
48847;SDS011;36611;51.638;5.784;2023-02-27T07:08:02;7.70;;;3.97;;
48847;SDS011;36611;51.638;5.784;2023-02-27T07:10:29;8.52;;;3.75;;
48847;SDS011;36611;51.638;5.784;2023-02-27T07:12:56;7.60;;;3.40;;
48847;SDS011;36611;51.638;5.784;2023-02-27T07:15:22;4.93;;;3.25;;
48847;SDS011;36611;51.638;5.784;2023-02-27T07:17:49;8.40;;;3.33;;
48847;SDS011;36611;51.638;5.784;2023-02-27T07:20:16;5.97;;;3.58;;
48847;SDS011;36611;51.638;5.784;2023-02-27T07:22:44;6.95;;;4.30;;
48847;SDS011;36611;51.638;5.784;2023-02-27T07:25:10;9.25;;;3.83;;
48847;SDS011;36611;51.638;5.784;2023-02-27T07:27:37;4.90;;;4.05;;
48847;SDS011;36611;51.638;5.784;2023-02-27T07:30:04;7.28;;;4.03;;
48847;SDS011;36611;51.638;5.784;2023-02-27T07:32:31;10.18;;;4.00;;
48847;SDS011;36611;51.638;5.784;2023-02-27T07:34:57;9.43;;;4.70;;
48847;SDS011;36611;51.638;5.784;2023-02-27T07:37:24;9.35;;;4.50;;
48847;SDS011;36611;51.638;5.784;2023-02-27T07:39:53;4.88;;;3.58;;
48847;SDS011;36611;51.638;5.784;2023-02-27T07:42:21;9.25;;;4.18;;
48847;SDS011;36611;51.638;5.784;2023-02-27T07:44:47;7.93;;;4.07;;
48847;SDS011;36611;51.638;5.784;2023-02-27T07:47:14;9.30;;;4.43;;
48847;SDS011;36611;51.638;5.784;2023-02-27T07:49:43;9.52;;;4.68;;
48847;SDS011;36611;51.638;5.784;2023-02-27T07:52:09;10.35;;;5.22;;
48847;SDS011;36611;51.638;5.784;2023-02-27T07:54:36;7.50;;;4.47;;
48847;SDS011;36611;51.638;5.784;2023-02-27T07:57:03;7.20;;;3.97;;
48847;SDS011;36611;51.638;5.784;2023-02-27T07:59:30;6.30;;;3.83;;
48847;SDS011;36611;51.638;5.784;2023-02-27T08:01:57;8.77;;;4.35;;
48847;SDS011;36611;51.638;5.784;2023-02-27T08:04:24;5.65;;;3.75;;
48847;SDS011;36611;51.638;5.784;2023-02-27T08:06:50;6.88;;;4.00;;
48847;SDS011;36611;51.638;5.784;2023-02-27T08:09:17;8.82;;;4.20;;
48847;SDS011;36611;51.638;5.784;2023-02-27T08:11:44;5.93;;;4.00;;
48847;SDS011;36611;51.638;5.784;2023-02-27T08:14:14;6.47;;;3.38;;
48847;SDS011;36611;51.638;5.784;2023-02-27T08:16:40;7.93;;;4.28;;
48847;SDS011;36611;51.638;5.784;2023-02-27T08:19:07;8.13;;;3.80;;
48847;SDS011;36611;51.638;5.784;2023-02-27T08:21:33;4.95;;;3.20;;
48847;SDS011;36611;51.638;5.784;2023-02-27T08:24:00;6.47;;;3.45;;
48847;SDS011;36611;51.638;5.784;2023-02-27T08:26:30;8.32;;;3.92;;
48847;SDS011;36611;51.638;5.784;2023-02-27T08:28:57;8.02;;;3.70;;
48847;SDS011;36611;51.638;5.784;2023-02-27T08:31:24;6.00;;;3.78;;
48847;SDS011;36611;51.638;5.784;2023-02-27T08:33:50;5.88;;;3.78;;
48847;SDS011;36611;51.638;5.784;2023-02-27T08:36:33;5.40;;;3.40;;
48847;SDS011;36611;51.638;5.784;2023-02-27T08:38:59;5.30;;;3.58;;
48847;SDS011;36611;51.638;5.784;2023-02-27T08:41:26;9.43;;;3.70;;
48847;SDS011;36611;51.638;5.784;2023-02-27T08:43:52;6.32;;;3.17;;
48847;SDS011;36611;51.638;5.784;2023-02-27T08:46:19;7.07;;;3.50;;
48847;SDS011;36611;51.638;5.784;2023-02-27T08:48:45;7.25;;;3.20;;
48847;SDS011;36611;51.638;5.784;2023-02-27T08:51:12;7.18;;;3.72;;
48847;SDS011;36611;51.638;5.784;2023-02-27T08:53:39;4.88;;;3.17;;
48847;SDS011;36611;51.638;5.784;2023-02-27T08:56:06;6.68;;;3.22;;
48847;SDS011;36611;51.638;5.784;2023-02-27T08:58:32;6.68;;;2.78;;
48847;SDS011;36611;51.638;5.784;2023-02-27T09:01:01;6.93;;;3.40;;
48847;SDS011;36611;51.638;5.784;2023-02-27T09:03:28;3.28;;;2.33;;
48847;SDS011;36611;51.638;5.784;2023-02-27T09:05:56;6.85;;;3.13;;
48847;SDS011;36611;51.638;5.784;2023-02-27T09:08:23;5.43;;;2.95;;
48847;SDS011;36611;51.638;5.784;2023-02-27T09:10:50;6.85;;;2.55;;
48847;SDS011;36611;51.638;5.784;2023-02-27T09:13:16;5.93;;;2.55;;
48847;SDS011;36611;51.638;5.784;2023-02-27T09:15:45;5.32;;;2.50;;
48847;SDS011;36611;51.638;5.784;2023-02-27T09:18:13;8.65;;;2.95;;
48847;SDS011;36611;51.638;5.784;2023-02-27T09:20:39;7.80;;;3.10;;
48847;SDS011;36611;51.638;5.784;2023-02-27T09:23:06;4.78;;;2.90;;
48847;SDS011;36611;51.638;5.784;2023-02-27T09:25:33;5.97;;;2.10;;
48847;SDS011;36611;51.638;5.784;2023-02-27T09:28:00;4.82;;;2.15;;
48847;SDS011;36611;51.638;5.784;2023-02-27T09:30:27;3.20;;;2.42;;
48847;SDS011;36611;51.638;5.784;2023-02-27T09:32:53;3.92;;;2.50;;
48847;SDS011;36611;51.638;5.784;2023-02-27T09:35:20;4.72;;;2.30;;
48847;SDS011;36611;51.638;5.784;2023-02-27T09:37:47;5.32;;;2.28;;
48847;SDS011;36611;51.638;5.784;2023-02-27T09:42:59;3.72;;;2.50;;
48847;SDS011;36611;51.638;5.784;2023-02-27T09:45:31;2.95;;;2.30;;
48847;SDS011;36611;51.638;5.784;2023-02-27T09:48:05;2.85;;;2.08;;
48847;SDS011;36611;51.638;5.784;2023-02-27T09:50:44;4.57;;;2.20;;
48847;SDS011;36611;51.638;5.784;2023-02-27T09:53:19;2.83;;;2.00;;
48847;SDS011;36611;51.638;5.784;2023-02-27T09:55:49;3.70;;;2.00;;
48847;SDS011;36611;51.638;5.784;2023-02-27T09:58:28;4.65;;;2.20;;
48847;SDS011;36611;51.638;5.784;2023-02-27T10:00:59;5.28;;;2.10;;
48847;SDS011;36611;51.638;5.784;2023-02-27T10:06:46;3.35;;;1.63;;
48847;SDS011;36611;51.638;5.784;2023-02-27T10:14:54;3.38;;;1.40;;
48847;SDS011;36611;51.638;5.784;2023-02-27T10:17:29;3.55;;;1.55;;
48847;SDS011;36611;51.638;5.784;2023-02-27T10:20:00;5.68;;;1.70;;
48847;SDS011;36611;51.638;5.784;2023-02-27T10:22:33;5.18;;;1.83;;
48847;SDS011;36611;51.638;5.784;2023-02-27T10:25:06;4.68;;;1.90;;
48847;SDS011;36611;51.638;5.784;2023-02-27T10:27:57;4.72;;;1.60;;
48847;SDS011;36611;51.638;5.784;2023-02-27T10:30:34;5.38;;;1.80;;
48847;SDS011;36611;51.638;5.784;2023-02-27T10:35:46;3.90;;;1.50;;
48847;SDS011;36611;51.638;5.784;2023-02-27T10:38:17;4.25;;;1.67;;
48847;SDS011;36611;51.638;5.784;2023-02-27T10:40:52;6.05;;;2.00;;
48847;SDS011;36611;51.638;5.784;2023-02-27T10:43:20;3.92;;;1.63;;
48847;SDS011;36611;51.638;5.784;2023-02-27T10:45:48;6.20;;;1.95;;
48847;SDS011;36611;51.638;5.784;2023-02-27T10:48:14;2.47;;;1.27;;
48847;SDS011;36611;51.638;5.784;2023-02-27T10:50:43;3.72;;;1.77;;
48847;SDS011;36611;51.638;5.784;2023-02-27T10:55:46;5.82;;;1.42;;
48847;SDS011;36611;51.638;5.784;2023-02-27T10:58:24;2.30;;;1.20;;
48847;SDS011;36611;51.638;5.784;2023-02-27T11:00:55;5.78;;;1.40;;
48847;SDS011;36611;51.638;5.784;2023-02-27T11:03:25;2.85;;;1.27;;
48847;SDS011;36611;51.638;5.784;2023-02-27T11:05:56;3.45;;;1.35;;
48847;SDS011;36611;51.638;5.784;2023-02-27T11:08:25;5.68;;;1.40;;
48847;SDS011;36611;51.638;5.784;2023-02-27T11:11:01;2.70;;;1.25;;
48847;SDS011;36611;51.638;5.784;2023-02-27T11:13:29;3.15;;;1.20;;
48847;SDS011;36611;51.638;5.784;2023-02-27T11:18:31;3.67;;;1.52;;
48847;SDS011;36611;51.638;5.784;2023-02-27T11:23:38;5.57;;;1.98;;
48847;SDS011;36611;51.638;5.784;2023-02-27T11:26:16;4.72;;;1.58;;
48847;SDS011;36611;51.638;5.784;2023-02-27T11:28:56;4.57;;;1.55;;
48847;SDS011;36611;51.638;5.784;2023-02-27T11:31:47;4.57;;;1.73;;
48847;SDS011;36611;51.638;5.784;2023-02-27T11:34:22;4.07;;;1.48;;
48847;SDS011;36611;51.638;5.784;2023-02-27T11:36:59;3.20;;;1.63;;
48847;SDS011;36611;51.638;5.784;2023-02-27T11:39:33;4.10;;;1.55;;
48847;SDS011;36611;51.638;5.784;2023-02-27T11:42:15;2.83;;;1.40;;
48847;SDS011;36611;51.638;5.784;2023-02-27T11:44:53;3.90;;;1.33;;
48847;SDS011;36611;51.638;5.784;2023-02-27T11:47:32;1.98;;;0.90;;
48847;SDS011;36611;51.638;5.784;2023-02-27T11:50:06;4.65;;;1.70;;
48847;SDS011;36611;51.638;5.784;2023-02-27T11:53:01;2.38;;;1.10;;
48847;SDS011;36611;51.638;5.784;2023-02-27T11:55:31;5.20;;;1.45;;
48847;SDS011;36611;51.638;5.784;2023-02-27T11:58:03;1.40;;;1.05;;
48847;SDS011;36611;51.638;5.784;2023-02-27T12:00:39;3.45;;;1.48;;
48847;SDS011;36611;51.638;5.784;2023-02-27T12:03:27;3.20;;;1.50;;
48847;SDS011;36611;51.638;5.784;2023-02-27T12:05:58;3.33;;;1.40;;
48847;SDS011;36611;51.638;5.784;2023-02-27T12:11:20;5.05;;;1.50;;
48847;SDS011;36611;51.638;5.784;2023-02-27T12:13:57;2.72;;;1.95;;
48847;SDS011;36611;51.638;5.784;2023-02-27T12:19:13;4.00;;;1.52;;
48847;SDS011;36611;51.638;5.784;2023-02-27T12:21:53;2.25;;;1.30;;
48847;SDS011;36611;51.638;5.784;2023-02-27T12:24:32;3.40;;;1.30;;
48847;SDS011;36611;51.638;5.784;2023-02-27T12:27:10;5.43;;;1.60;;
48847;SDS011;36611;51.638;5.784;2023-02-27T12:29:46;3.25;;;1.48;;
48847;SDS011;36611;51.638;5.784;2023-02-27T12:32:23;5.22;;;1.55;;
48847;SDS011;36611;51.638;5.784;2023-02-27T12:37:30;2.38;;;1.30;;
48847;SDS011;36611;51.638;5.784;2023-02-27T12:40:00;3.67;;;1.50;;
48847;SDS011;36611;51.638;5.784;2023-02-27T12:48:29;3.20;;;1.58;;
48847;SDS011;36611;51.638;5.784;2023-02-27T12:54:25;2.75;;;1.10;;
48847;SDS011;36611;51.638;5.784;2023-02-27T12:59:50;2.65;;;1.75;;
48847;SDS011;36611;51.638;5.784;2023-02-27T13:08:06;2.78;;;1.50;;
48847;SDS011;36611;51.638;5.784;2023-02-27T16:33:13;5.60;;;1.48;;
48847;SDS011;36611;51.638;5.784;2023-02-27T16:35:47;4.05;;;1.20;;
48847;SDS011;36611;51.638;5.784;2023-02-27T16:38:15;3.33;;;1.10;;
48847;SDS011;36611;51.638;5.784;2023-02-27T16:40:42;2.22;;;1.50;;
48847;SDS011;36611;51.638;5.784;2023-02-27T16:43:10;3.13;;;1.00;;
48847;SDS011;36611;51.638;5.784;2023-02-27T16:45:37;2.22;;;1.13;;
48847;SDS011;36611;51.638;5.784;2023-02-27T16:48:15;2.55;;;1.30;;
48847;SDS011;36611;51.638;5.784;2023-02-27T16:50:42;3.28;;;1.17;;
48847;SDS011;36611;51.638;5.784;2023-02-27T16:53:08;2.88;;;1.10;;
48847;SDS011;36611;51.638;5.784;2023-02-27T16:55:38;3.50;;;1.40;;
48847;SDS011;36611;51.638;5.784;2023-02-27T16:58:06;3.20;;;1.25;;
48847;SDS011;36611;51.638;5.784;2023-02-27T17:00:35;3.92;;;1.15;;
48847;SDS011;36611;51.638;5.784;2023-02-27T17:03:01;1.88;;;1.02;;
48847;SDS011;36611;51.638;5.784;2023-02-27T17:05:28;2.72;;;1.00;;
48847;SDS011;36611;51.638;5.784;2023-02-27T17:07:54;2.13;;;1.25;;
48847;SDS011;36611;51.638;5.784;2023-02-27T17:10:21;3.15;;;1.30;;
48847;SDS011;36611;51.638;5.784;2023-02-27T17:12:50;2.63;;;1.05;;
48847;SDS011;36611;51.638;5.784;2023-02-27T17:15:17;3.05;;;1.10;;
48847;SDS011;36611;51.638;5.784;2023-02-27T17:17:43;4.22;;;1.30;;
48847;SDS011;36611;51.638;5.784;2023-02-27T17:20:11;1.40;;;0.80;;
48847;SDS011;36611;51.638;5.784;2023-02-27T17:22:40;3.97;;;1.17;;
48847;SDS011;36611;51.638;5.784;2023-02-27T17:25:09;2.92;;;1.17;;
48847;SDS011;36611;51.638;5.784;2023-02-27T17:27:36;2.53;;;1.08;;
48847;SDS011;36611;51.638;5.784;2023-02-27T17:30:03;4.07;;;1.38;;
48847;SDS011;36611;51.638;5.784;2023-02-27T17:32:30;3.38;;;1.30;;
48847;SDS011;36611;51.638;5.784;2023-02-27T17:34:57;3.83;;;1.08;;
48847;SDS011;36611;51.638;5.784;2023-02-27T17:37:24;3.00;;;1.10;;
48847;SDS011;36611;51.638;5.784;2023-02-27T17:39:51;3.65;;;0.90;;
48847;SDS011;36611;51.638;5.784;2023-02-27T17:42:17;3.17;;;1.08;;
48847;SDS011;36611;51.638;5.784;2023-02-27T17:44:44;3.85;;;1.13;;
48847;SDS011;36611;51.638;5.784;2023-02-27T17:47:13;2.17;;;1.00;;
48847;SDS011;36611;51.638;5.784;2023-02-27T17:49:40;2.95;;;1.20;;
48847;SDS011;36611;51.638;5.784;2023-02-27T17:52:07;3.00;;;1.50;;
48847;SDS011;36611;51.638;5.784;2023-02-27T17:54:34;3.15;;;0.80;;
48847;SDS011;36611;51.638;5.784;2023-02-27T17:57:02;3.47;;;1.00;;
48847;SDS011;36611;51.638;5.784;2023-02-27T17:59:30;1.77;;;0.90;;
48847;SDS011;36611;51.638;5.784;2023-02-27T18:01:57;8.13;;;2.22;;
48847;SDS011;36611;51.638;5.784;2023-02-27T18:04:24;3.95;;;0.98;;
48847;SDS011;36611;51.638;5.784;2023-02-27T18:06:50;10.43;;;1.27;;
48847;SDS011;36611;51.638;5.784;2023-02-27T18:09:17;2.75;;;1.00;;
48847;SDS011;36611;51.638;5.784;2023-02-27T18:11:44;3.80;;;0.90;;
48847;SDS011;36611;51.638;5.784;2023-02-27T18:14:10;2.67;;;1.00;;
48847;SDS011;36611;51.638;5.784;2023-02-27T18:16:37;3.95;;;1.40;;
48847;SDS011;36611;51.638;5.784;2023-02-27T18:19:04;1.60;;;1.10;;
48847;SDS011;36611;51.638;5.784;2023-02-27T18:21:31;2.88;;;0.82;;
48847;SDS011;36611;51.638;5.784;2023-02-27T18:23:59;1.40;;;0.90;;
48847;SDS011;36611;51.638;5.784;2023-02-27T18:26:26;3.00;;;1.02;;
48847;SDS011;36611;51.638;5.784;2023-02-27T18:29:03;2.10;;;0.85;;
48847;SDS011;36611;51.638;5.784;2023-02-27T18:31:33;1.30;;;0.88;;
48847;SDS011;36611;51.638;5.784;2023-02-27T18:34:04;2.08;;;1.13;;
48847;SDS011;36611;51.638;5.784;2023-02-27T18:36:31;1.23;;;0.70;;
48847;SDS011;36611;51.638;5.784;2023-02-27T18:38:58;1.70;;;1.00;;
48847;SDS011;36611;51.638;5.784;2023-02-27T18:41:25;1.48;;;0.93;;
48847;SDS011;36611;51.638;5.784;2023-02-27T18:43:54;3.50;;;0.80;;
48847;SDS011;36611;51.638;5.784;2023-02-27T18:46:21;4.20;;;0.88;;
48847;SDS011;36611;51.638;5.784;2023-02-27T18:48:48;1.85;;;1.02;;
48847;SDS011;36611;51.638;5.784;2023-02-27T18:51:15;1.67;;;0.90;;
48847;SDS011;36611;51.638;5.784;2023-02-27T18:53:46;2.65;;;0.73;;
48847;SDS011;36611;51.638;5.784;2023-02-27T18:56:15;2.33;;;0.90;;
48847;SDS011;36611;51.638;5.784;2023-02-27T18:58:48;2.25;;;0.80;;
48847;SDS011;36611;51.638;5.784;2023-02-27T19:01:26;4.13;;;1.10;;
48847;SDS011;36611;51.638;5.784;2023-02-27T19:03:55;1.83;;;0.80;;
48847;SDS011;36611;51.638;5.784;2023-02-27T19:06:29;3.90;;;0.80;;
48847;SDS011;36611;51.638;5.784;2023-02-27T19:08:59;1.67;;;0.80;;
48847;SDS011;36611;51.638;5.784;2023-02-27T19:11:27;1.17;;;0.70;;
48847;SDS011;36611;51.638;5.784;2023-02-27T19:13:58;1.70;;;0.80;;
48847;SDS011;36611;51.638;5.784;2023-02-27T19:16:25;3.30;;;0.90;;
48847;SDS011;36611;51.638;5.784;2023-02-27T19:18:53;1.27;;;0.70;;
48847;SDS011;36611;51.638;5.784;2023-02-27T19:21:25;1.27;;;0.77;;
48847;SDS011;36611;51.638;5.784;2023-02-27T19:23:52;1.23;;;0.80;;
48847;SDS011;36611;51.638;5.784;2023-02-27T19:26:19;2.15;;;0.75;;
48847;SDS011;36611;51.638;5.784;2023-02-27T19:28:50;1.88;;;0.82;;
48847;SDS011;36611;51.638;5.784;2023-02-27T19:31:20;1.60;;;0.77;;
48847;SDS011;36611;51.638;5.784;2023-02-27T19:33:47;1.40;;;0.77;;
48847;SDS011;36611;51.638;5.784;2023-02-27T19:36:15;1.13;;;0.70;;
48847;SDS011;36611;51.638;5.784;2023-02-27T19:38:43;0.85;;;0.63;;
48847;SDS011;36611;51.638;5.784;2023-02-27T19:41:11;1.75;;;0.95;;
48847;SDS011;36611;51.638;5.784;2023-02-27T19:43:39;0.95;;;0.60;;
48847;SDS011;36611;51.638;5.784;2023-02-27T19:46:07;1.60;;;0.80;;
48847;SDS011;36611;51.638;5.784;2023-02-27T19:48:35;1.25;;;0.75;;
48847;SDS011;36611;51.638;5.784;2023-02-27T19:51:06;4.65;;;1.00;;
48847;SDS011;36611;51.638;5.784;2023-02-27T19:53:34;1.75;;;1.08;;
48847;SDS011;36611;51.638;5.784;2023-02-27T19:56:03;3.08;;;0.82;;
48847;SDS011;36611;51.638;5.784;2023-02-27T19:58:32;2.10;;;0.90;;
48847;SDS011;36611;51.638;5.784;2023-02-27T20:00:59;2.13;;;0.90;;
48847;SDS011;36611;51.638;5.784;2023-02-27T20:03:27;2.03;;;1.00;;
48847;SDS011;36611;51.638;5.784;2023-02-27T20:05:55;1.60;;;0.90;;
48847;SDS011;36611;51.638;5.784;2023-02-27T20:08:22;2.15;;;0.82;;
48847;SDS011;36611;51.638;5.784;2023-02-27T20:10:52;2.17;;;0.88;;
48847;SDS011;36611;51.638;5.784;2023-02-27T20:13:22;1.25;;;0.90;;
48847;SDS011;36611;51.638;5.784;2023-02-27T20:16:11;1.75;;;0.90;;
48847;SDS011;36611;51.638;5.784;2023-02-27T20:18:38;2.22;;;1.00;;
48847;SDS011;36611;51.638;5.784;2023-02-27T20:21:19;0.88;;;0.70;;
48847;SDS011;36611;51.638;5.784;2023-02-27T20:23:48;1.10;;;0.80;;
48847;SDS011;36611;51.638;5.784;2023-02-27T20:28:43;1.38;;;0.88;;
48847;SDS011;36611;51.638;5.784;2023-02-27T20:31:11;1.40;;;0.90;;
48847;SDS011;36611;51.638;5.784;2023-02-27T20:33:40;3.08;;;1.08;;